Time;durP1;ratioP1;P1;durP2;ratioP2;P2;SDS_P1;SDS_P2;PMS_P1;PMS_P2;Temp;Humidity;BMP_temperature;BMP_pressure;BME280_temperature;BME280_humidity;BME280_pressure;Samples;Min_cycle;Max_cycle;Signal;HPM_P1;HPM_P2
2022/01/18 00:01:24;;;;;;;;;14.25;14.25;;;;;20.57;36.74;103432.94;5075086;27;51241;-54
2022/01/18 00:03:49;;;;;;;;;9.25;9.25;;;;;20.55;36.11;103451.53;5059499;28;51124;-53
2022/01/18 00:06:15;;;;;;;;;10.00;10.00;;;;;20.53;36.71;103450.81;5066327;28;51052;-54
2022/01/18 00:08:40;;;;;;;;;9.25;9.00;;;;;20.54;36.60;103447.03;5069003;28;51183;-53
2022/01/18 00:11:07;;;;;;;;;12.75;10.50;;;;;20.52;36.71;103439.94;5069658;28;51367;-52
2022/01/18 00:13:44;;;;;;;;;13.00;12.00;;;;;20.52;36.20;103442.69;5077117;28;53821;-55
2022/01/18 00:16:37;;;;;;;;;15.50;12.25;;;;;20.51;36.25;103449.22;5073952;28;51403;-52
2022/01/18 00:19:07;;;;;;;;;14.50;10.75;;;;;20.49;36.54;103432.88;5058458;28;51320;-52
2022/01/18 00:22:07;;;;;;;;;10.25;9.75;;;;;20.48;36.54;103439.41;5067944;28;51820;-52
2022/01/18 00:24:32;;;;;;;;;10.75;10.75;;;;;20.45;36.31;103448.88;5074234;28;52272;-53
2022/01/18 00:26:58;;;;;;;;;13.25;9.25;;;;;20.45;36.80;103440.59;5066814;27;51058;-55
2022/01/18 00:29:25;;;;;;;;;13.25;10.50;;;;;20.44;36.50;103425.13;5066689;28;51090;-54
2022/01/18 00:32:09;;;;;;;;;11.75;10.75;;;;;20.43;36.57;103441.78;5070142;28;51298;-55
2022/01/18 00:34:37;;;;;;;;;11.75;11.00;;;;;20.42;36.74;103451.03;5060716;27;51224;-54
2022/01/18 00:39:32;;;;;;;;;11.00;10.00;;;;;20.40;36.61;103426.41;5074075;28;51006;-54
2022/01/18 00:41:58;;;;;;;;;11.00;9.00;;;;;20.40;36.52;103442.91;5068594;28;50962;-54
2022/01/18 00:44:23;;;;;;;;;13.00;11.25;;;;;20.39;36.54;103432.06;5063220;28;51749;-55
2022/01/18 00:46:49;;;;;;;;;11.00;11.00;;;;;20.39;36.75;103418.31;5068731;27;51036;-54
2022/01/18 00:49:15;;;;;;;;;11.75;11.75;;;;;20.38;36.55;103422.09;5071581;27;51113;-54
2022/01/18 00:51:44;;;;;;;;;10.00;9.50;;;;;20.37;36.66;103426.72;5060415;28;51930;-54
2022/01/18 00:54:13;;;;;;;;;13.25;9.50;;;;;20.36;36.53;103418.63;5067905;28;51884;-55
2022/01/18 00:56:41;;;;;;;;;12.50;12.00;;;;;20.36;36.22;103416.75;5076684;28;51325;-55
2022/01/18 00:59:07;;;;;;;;;10.25;8.75;;;;;20.36;36.39;103422.25;5075038;28;51189;-52
2022/01/18 01:01:34;;;;;;;;;15.25;13.50;;;;;20.35;36.40;103419.66;5069960;28;51342;-52
2022/01/18 01:04:02;;;;;;;;;13.25;9.75;;;;;20.34;36.25;103428.94;5066546;28;51703;-51
2022/01/18 01:06:29;;;;;;;;;13.75;10.50;;;;;20.34;36.71;103423.44;5062584;28;50906;-52
2022/01/18 01:08:55;;;;;;;;;10.50;10.50;;;;;20.33;36.30;103416.22;5068388;28;51170;-54
2022/01/18 01:11:21;;;;;;;;;9.50;9.00;;;;;20.32;36.49;103415.34;5071730;28;51290;-48
2022/01/18 01:13:49;;;;;;;;;13.00;10.00;;;;;20.31;36.18;103423.75;5065179;28;51137;-49
2022/01/18 01:33:04;;;;;;;;;12.75;12.75;;;;;20.26;36.66;103420.63;5059145;28;51060;-56
2022/01/18 01:43:38;;;;;;;;;8.50;7.25;;;;;20.22;36.85;103421.94;5061018;28;51150;-62
2022/01/18 01:46:04;;;;;;;;;16.50;13.75;;;;;20.22;36.61;103432.94;5064735;28;51814;-58
2022/01/18 01:48:30;;;;;;;;;13.75;12.25;;;;;20.21;36.47;103437.59;5062355;28;51092;-55
2022/01/18 01:51:05;;;;;;;;;19.25;16.75;;;;;20.21;36.50;103428.47;5062285;28;51183;-52
2022/01/18 01:53:33;;;;;;;;;20.25;18.00;;;;;20.19;36.29;103440.50;5060727;28;51210;-55
2022/01/18 01:55:59;;;;;;;;;20.75;15.25;;;;;20.19;36.62;103446.00;5073647;27;51131;-55
2022/01/18 01:58:26;;;;;;;;;16.00;14.25;;;;;20.17;36.66;103437.06;5076202;28;51044;-55
2022/01/18 02:00:57;;;;;;;;;16.50;13.25;;;;;20.17;36.73;103436.19;5070465;28;51210;-53
2022/01/18 02:03:23;;;;;;;;;14.75;12.75;;;;;20.17;36.58;103441.69;5057007;28;51277;-55
2022/01/18 02:05:49;;;;;;;;;19.75;14.25;;;;;20.16;36.63;103438.06;5057162;28;51796;-55
2022/01/18 02:08:15;;;;;;;;;14.75;12.25;;;;;20.15;36.61;103449.25;5076431;28;51108;-56
2022/01/18 02:10:42;;;;;;;;;23.75;16.50;;;;;20.16;36.52;103451.84;5059431;27;51211;-57
2022/01/18 02:13:11;;;;;;;;;15.50;13.25;;;;;20.15;36.57;103446.50;5062103;28;51058;-56
2022/01/18 02:15:40;;;;;;;;;13.50;13.00;;;;;20.14;36.51;103436.50;5067177;27;52847;-56
2022/01/18 02:23:36;;;;;;;;;15.50;14.50;;;;;20.11;37.00;103432.19;5060955;28;51474;-60
2022/01/18 02:26:01;;;;;;;;;13.75;10.00;;;;;20.11;36.88;103440.47;5075816;27;52756;-55
2022/01/18 02:28:27;;;;;;;;;14.25;11.50;;;;;20.09;37.09;103427.84;5066032;27;51263;-55
2022/01/18 02:30:53;;;;;;;;;11.75;9.50;;;;;20.08;36.83;103432.50;5067399;27;51060;-55
2022/01/18 02:33:19;;;;;;;;;14.50;14.00;;;;;20.08;36.88;103429.75;5062044;28;51227;-55
2022/01/18 02:35:46;;;;;;;;;13.50;12.00;;;;;20.07;36.64;103435.41;5071106;28;52042;-54
2022/01/18 02:38:12;;;;;;;;;10.00;10.00;;;;;20.06;36.91;103440.03;5057555;28;51062;-57
2022/01/18 02:40:37;;;;;;;;;13.00;10.00;;;;;20.05;36.70;103432.81;5063978;28;51117;-55
2022/01/18 02:45:51;;;;;;;;;11.00;9.75;;;;;20.03;37.03;103432.13;5056028;28;51501;-55
2022/01/18 02:48:16;;;;;;;;;12.50;11.25;;;;;20.01;36.49;103431.41;5060822;28;51067;-54
2022/01/18 02:50:42;;;;;;;;;11.75;11.75;;;;;20.02;37.04;103416.63;5060001;28;51022;-54
2022/01/18 02:53:07;;;;;;;;;10.50;10.50;;;;;20.01;36.56;103423.16;5071856;28;51410;-55
2022/01/18 02:55:33;;;;;;;;;13.75;11.25;;;;;20.00;36.90;103431.53;5069950;28;51056;-55
2022/01/18 02:58:04;;;;;;;;;11.50;10.25;;;;;19.98;36.75;103426.19;5057092;28;51011;-54
2022/01/18 03:00:42;;;;;;;;;11.25;9.50;;;;;19.98;36.66;103420.69;5068295;28;52022;-55
2022/01/18 03:03:12;;;;;;;;;11.75;11.25;;;;;19.98;36.71;103433.59;5062254;28;51223;-56
2022/01/18 03:05:38;;;;;;;;;9.00;7.50;;;;;19.98;36.81;103408.84;5055893;28;51716;-55
2022/01/18 03:08:03;;;;;;;;;13.25;10.50;;;;;19.96;36.94;103392.47;5072275;28;51230;-54
2022/01/18 03:10:29;;;;;;;;;14.25;10.75;;;;;19.97;36.81;103398.84;5074842;28;51163;-54
2022/01/18 03:12:54;;;;;;;;;9.00;9.00;;;;;19.95;36.71;103401.75;5062746;28;51074;-55
2022/01/18 03:15:19;;;;;;;;;9.25;8.25;;;;;19.94;36.78;103379.91;5055547;28;51046;-55
2022/01/18 03:17:45;;;;;;;;;6.25;6.25;;;;;19.94;36.88;103386.28;5069426;28;51051;-56
2022/01/18 03:20:12;;;;;;;;;11.25;9.00;;;;;19.94;37.14;103380.78;5062757;28;51142;-56
2022/01/18 03:22:38;;;;;;;;;11.00;9.25;;;;;19.94;36.66;103369.78;5062154;28;51496;-55
2022/01/18 03:28:04;;;;;;;;;13.00;9.50;;;;;19.92;37.08;103377.34;5071382;27;51352;-56
2022/01/18 03:30:30;;;;;;;;;6.00;6.00;;;;;19.91;36.89;103369.25;5055518;28;51060;-54
2022/01/18 03:32:55;;;;;;;;;5.75;5.75;;;;;19.89;36.66;103367.47;5064186;28;51058;-55
2022/01/18 03:35:23;;;;;;;;;11.75;8.50;;;;;19.89;36.69;103385.88;5063685;28;51180;-54
2022/01/18 03:37:48;;;;;;;;;8.25;6.25;;;;;19.89;36.95;103375.72;5069927;28;51534;-53
2022/01/18 03:40:14;;;;;;;;;7.50;7.25;;;;;19.88;37.05;103371.25;5062146;28;50935;-55
2022/01/18 03:42:45;;;;;;;;;8.00;6.75;;;;;19.87;36.66;103386.03;5060233;28;51238;-53
2022/01/18 03:45:19;;;;;;;;;9.50;6.50;;;;;19.86;37.05;103381.56;5057315;28;51759;-54
2022/01/18 03:47:46;;;;;;;;;8.00;6.75;;;;;19.86;36.90;103369.69;5059835;28;51127;-54
2022/01/18 03:50:14;;;;;;;;;6.50;6.50;;;;;19.85;36.52;103379.84;5068559;27;51048;-55
2022/01/18 03:52:41;;;;;;;;;9.50;7.25;;;;;19.86;36.71;103384.31;5060804;28;51132;-54
2022/01/18 03:55:08;;;;;;;;;7.50;6.50;;;;;19.85;36.59;103376.22;5058250;28;51016;-54
2022/01/18 03:57:34;;;;;;;;;7.25;7.25;;;;;19.84;36.65;103378.09;5057210;28;51001;-54
2022/01/18 03:59:59;;;;;;;;;5.75;5.75;;;;;19.83;36.61;103381.88;5057020;28;51592;-55
2022/01/18 04:02:25;;;;;;;;;9.25;7.00;;;;;19.83;36.69;103378.28;5055229;28;51107;-53
2022/01/18 04:04:50;;;;;;;;;5.00;5.00;;;;;19.82;36.76;103384.78;5068028;28;51635;-54
2022/01/18 04:07:15;;;;;;;;;6.00;6.00;;;;;19.80;36.77;103381.31;5064079;28;51120;-56
2022/01/18 04:09:41;;;;;;;;;8.50;7.75;;;;;19.80;36.94;103373.06;5071621;28;51460;-54
2022/01/18 04:12:07;;;;;;;;;8.00;7.00;;;;;19.79;36.63;103369.44;5055466;28;50996;-52
2022/01/18 04:14:33;;;;;;;;;8.00;7.25;;;;;19.79;36.87;103371.34;5062584;28;52722;-58
2022/01/18 04:17:12;;;;;;;;;7.00;7.00;;;;;19.79;37.01;103377.69;5069945;27;51868;-53
2022/01/18 04:27:54;;;;;;;;;9.00;5.75;;;;;19.75;36.82;103370.78;5062770;27;51261;-55
2022/01/18 04:30:21;;;;;;;;;6.00;6.00;;;;;19.76;36.89;103377.16;5073208;28;51206;-53
2022/01/18 04:32:46;;;;;;;;;9.75;6.25;;;;;19.75;36.95;103367.19;5076369;28;51300;-55
2022/01/18 04:35:11;;;;;;;;;7.75;7.25;;;;;19.74;36.70;103368.22;5061993;28;51114;-53
2022/01/18 04:37:37;;;;;;;;;11.75;7.25;;;;;19.73;36.95;103375.59;5062629;28;51082;-55
2022/01/18 04:40:11;;;;;;;;;8.00;7.00;;;;;19.73;36.80;103377.47;5057971;28;51283;-55
2022/01/18 04:50:30;;;;;;;;;8.75;7.75;;;;;19.70;36.59;103366.81;5074214;28;51064;-56
2022/01/18 04:52:55;;;;;;;;;6.25;6.00;;;;;19.70;37.04;103364.06;5066021;28;51132;-53
2022/01/18 04:55:21;;;;;;;;;6.75;6.50;;;;;19.69;36.75;103365.91;5071951;28;52823;-52
2022/01/18 04:57:53;;;;;;;;;6.75;5.75;;;;;19.69;36.97;103362.28;5077345;28;51044;-52
2022/01/18 05:00:23;;;;;;;;;5.75;5.75;;;;;19.67;37.07;103358.84;5065855;27;51673;-54
2022/01/18 05:02:49;;;;;;;;;6.25;5.00;;;;;19.68;36.90;103360.56;5072760;28;51196;-55
2022/01/18 05:05:23;;;;;;;;;9.00;7.00;;;;;19.67;36.71;103356.97;5074123;27;50965;-55
2022/01/18 05:07:50;;;;;;;;;5.75;5.00;;;;;19.66;36.71;103359.88;5064254;28;51225;-54
2022/01/18 05:10:19;;;;;;;;;6.00;6.00;;;;;19.65;36.72;103358.13;5064502;28;51253;-54
2022/01/18 05:12:47;;;;;;;;;8.50;7.50;;;;;19.65;36.89;103363.63;5058004;28;51132;-52
2022/01/18 05:23:05;;;;;;;;;8.00;8.00;;;;;19.63;36.83;103361.06;5068569;28;51053;-53
2022/01/18 05:25:32;;;;;;;;;6.25;6.00;;;;;19.63;36.87;103365.69;5075216;27;52704;-57
2022/01/18 05:27:59;;;;;;;;;7.75;6.00;;;;;19.62;36.80;103381.31;5078215;27;51481;-58
2022/01/18 05:30:25;;;;;;;;;12.25;9.00;;;;;19.63;36.87;103371.19;5068269;28;51466;-53
2022/01/18 05:32:51;;;;;;;;;15.00;10.50;;;;;19.62;36.74;103375.81;5070364;27;51365;-53
2022/01/18 05:35:17;;;;;;;;;20.50;17.50;;;;;19.62;36.07;103372.22;5071976;28;51984;-55
2022/01/18 05:37:43;;;;;;;;;19.75;15.50;;;;;19.60;35.97;103381.47;5065408;28;51034;-54
2022/01/18 05:40:09;;;;;;;;;21.50;18.75;;;;;19.58;35.43;103363.38;5058482;28;51073;-55
2022/01/18 05:42:34;;;;;;;;;24.25;21.25;;;;;19.55;35.09;103367.31;5062053;28;51048;-55
2022/01/18 05:44:59;;;;;;;;;23.50;21.50;;;;;19.52;35.19;103359.38;5074909;27;51148;-56
2022/01/18 05:47:26;;;;;;;;;21.25;19.75;;;;;19.49;34.74;103356.06;5057326;28;51026;-56
2022/01/18 05:49:51;;;;;;;;;20.75;18.25;;;;;19.45;34.75;103336.25;5061604;28;51061;-56
2022/01/18 05:52:17;;;;;;;;;19.25;18.50;;;;;19.41;34.93;103351.34;5067755;28;50930;-55
2022/01/18 05:54:42;;;;;;;;;16.75;16.25;;;;;19.39;34.78;103347.88;5067972;28;52786;-54
2022/01/18 05:57:07;;;;;;;;;15.75;14.75;;;;;19.39;35.12;103347.03;5076800;28;50973;-55
2022/01/18 05:59:38;;;;;;;;;18.50;13.25;;;;;19.38;35.10;103340.63;5076306;27;51060;-56
2022/01/18 06:02:16;;;;;;;;;14.25;11.75;;;;;19.40;35.18;103343.25;5062088;28;51168;-54
2022/01/18 06:07:26;;;;;;;;;15.25;12.25;;;;;19.52;35.36;103347.50;5062281;28;51112;-54
2022/01/18 06:09:53;;;;;;;;;8.50;6.75;;;;;19.59;35.32;103349.50;5091791;27;51055;-55
2022/01/18 06:12:28;;;;;;;;;9.00;9.00;;;;;19.69;35.25;103354.03;5075610;27;50974;-56
2022/01/18 06:14:53;;;;;;;;;10.00;6.75;;;;;19.78;35.40;103353.09;5068182;28;52603;-55
2022/01/18 06:17:19;;;;;;;;;8.75;8.25;;;;;19.86;35.29;103354.06;5061261;27;51057;-53
2022/01/18 06:19:44;;;;;;;;;8.00;8.00;;;;;19.94;35.25;103357.91;5056247;28;50977;-55
2022/01/18 06:22:10;;;;;;;;;6.75;6.00;;;;;20.00;35.56;103351.75;5068959;28;51795;-54
2022/01/18 06:24:36;;;;;;;;;8.25;7.25;;;;;20.07;35.57;103361.97;5058283;28;51918;-54
2022/01/18 06:27:01;;;;;;;;;9.00;8.25;;;;;20.16;35.70;103369.28;5069160;27;51092;-56
2022/01/18 06:29:26;;;;;;;;;12.25;7.25;;;;;20.24;35.69;103364.88;5061225;28;51790;-55
2022/01/18 06:31:52;;;;;;;;;7.50;6.75;;;;;20.30;35.49;103373.34;5064543;28;51196;-58
2022/01/18 06:34:17;;;;;;;;;5.75;5.75;;;;;20.36;35.58;103369.94;5075478;28;51083;-58
2022/01/18 06:36:43;;;;;;;;;6.50;6.50;;;;;20.42;35.47;103361.06;5076289;28;51427;-58
2022/01/18 06:39:09;;;;;;;;;5.50;5.50;;;;;20.49;35.64;103363.19;5075823;27;51193;-58
2022/01/18 06:41:34;;;;;;;;;5.75;5.75;;;;;20.55;35.89;103368.91;5069672;27;51353;-57
2022/01/18 06:44:00;;;;;;;;;6.00;4.00;;;;;20.61;35.98;103359.97;5063838;28;51131;-57
2022/01/18 06:46:25;;;;;;;;;6.00;4.00;;;;;20.69;36.32;103359.19;5062216;28;51084;-57
2022/01/18 06:48:51;;;;;;;;;6.00;5.00;;;;;20.77;35.95;103372.16;5056656;28;50998;-57
2022/01/18 06:51:16;;;;;;;;;6.50;6.00;;;;;20.84;36.04;103371.34;5072437;28;51026;-58
2022/01/18 06:53:46;;;;;;;;;4.00;4.00;;;;;20.91;36.06;103371.53;5071023;28;51940;-57
2022/01/18 06:56:17;;;;;;;;;7.75;6.50;;;;;20.96;35.95;103375.53;5055671;28;51482;-57
2022/01/18 06:58:44;;;;;;;;;5.00;5.00;;;;;21.04;36.38;103374.66;5055454;28;51029;-58
2022/01/18 07:01:11;;;;;;;;;5.25;5.00;;;;;21.09;35.99;103368.69;5064571;28;51434;-57
2022/01/18 07:03:37;;;;;;;;;8.75;6.00;;;;;21.15;35.88;103377.13;5064458;28;51344;-58
2022/01/18 07:06:04;;;;;;;;;5.75;5.75;;;;;21.20;36.12;103369.25;5069486;28;51117;-57
2022/01/18 07:08:30;;;;;;;;;8.50;8.50;;;;;21.25;36.60;103363.22;5075135;28;51049;-59
2022/01/18 07:10:56;;;;;;;;;7.00;6.25;;;;;21.30;36.25;103366.38;5074265;27;51426;-56
2022/01/18 07:13:21;;;;;;;;;8.75;7.00;;;;;21.34;36.68;103362.25;5071022;27;51806;-55
2022/01/18 07:15:47;;;;;;;;;9.50;7.50;;;;;21.39;36.53;103365.38;5063309;28;51110;-58
2022/01/18 07:18:12;;;;;;;;;8.00;7.00;;;;;21.43;36.46;103355.72;5074113;28;51188;-57
2022/01/18 07:20:38;;;;;;;;;9.00;8.00;;;;;21.49;36.84;103362.47;5062699;28;51095;-55
2022/01/18 07:23:07;;;;;;;;;10.00;8.00;;;;;21.55;36.52;103356.25;5069749;28;50953;-54
2022/01/18 07:25:33;;;;;;;;;8.00;6.00;;;;;21.60;36.88;103356.63;5059415;28;51192;-53
2022/01/18 07:27:58;;;;;;;;;11.25;8.00;;;;;21.64;36.31;103355.25;5058091;27;51193;-55
2022/01/18 07:30:23;;;;;;;;;7.25;6.00;;;;;21.69;36.29;103357.53;5073115;28;51266;-56
2022/01/18 07:32:49;;;;;;;;;6.25;6.25;;;;;21.73;36.85;103365.28;5055514;28;51312;-55
2022/01/18 07:35:14;;;;;;;;;7.00;6.00;;;;;21.79;36.12;103363.75;5055273;27;50984;-57
2022/01/18 07:37:40;;;;;;;;;6.50;6.50;;;;;21.83;35.95;103359.59;5067825;28;51074;-58
2022/01/18 07:40:06;;;;;;;;;11.25;9.75;;;;;21.86;35.81;103350.97;5059982;28;51232;-57
2022/01/18 07:42:32;;;;;;;;;8.50;6.50;;;;;21.89;35.80;103354.25;5072642;28;51826;-56
2022/01/18 07:44:57;;;;;;;;;9.75;8.25;;;;;21.93;35.43;103356.66;5067030;28;51026;-61
2022/01/18 07:47:23;;;;;;;;;10.75;8.00;;;;;21.97;35.66;103352.53;5064463;28;51218;-57
2022/01/18 07:49:49;;;;;;;;;8.25;6.50;;;;;21.97;34.95;103350.63;5060246;28;51201;-55
2022/01/18 07:52:15;;;;;;;;;9.25;9.00;;;;;22.00;34.87;103353.06;5068752;28;51786;-55
2022/01/18 07:54:41;;;;;;;;;8.25;8.25;;;;;22.01;34.96;103346.50;5060201;28;51539;-56
2022/01/18 07:57:06;;;;;;;;;7.00;7.00;;;;;22.04;35.01;103351.66;5054156;28;51097;-55
2022/01/18 07:59:31;;;;;;;;;9.00;8.50;;;;;22.08;35.08;103349.44;5056929;28;51264;-54
2022/01/18 08:01:57;;;;;;;;;11.75;9.75;;;;;22.14;34.46;103338.59;5063366;28;51596;-57
2022/01/18 08:04:23;;;;;;;;;9.25;8.50;;;;;22.18;34.88;103347.38;5068215;28;51138;-55
2022/01/18 08:06:48;;;;;;;;;8.50;6.75;;;;;22.19;34.85;103344.44;5068871;28;51361;-56
2022/01/18 08:09:18;;;;;;;;;13.00;8.00;;;;;22.23;34.87;103338.59;5073821;28;51449;-55
2022/01/18 08:11:44;;;;;;;;;6.00;6.00;;;;;22.24;34.58;103335.66;5066136;27;51058;-53
2022/01/18 08:14:13;;;;;;;;;6.50;6.00;;;;;22.28;34.63;103325.97;5064942;28;51094;-57
2022/01/18 08:19:11;;;;;;;;;10.50;6.25;;;;;22.34;34.87;103330.78;5064312;28;51080;-58
2022/01/18 08:21:37;;;;;;;;;8.75;7.25;;;;;22.37;34.59;103341.47;5070240;28;51874;-55
2022/01/18 08:24:02;;;;;;;;;9.75;8.75;;;;;22.38;34.75;103343.22;5057420;28;51039;-55
2022/01/18 08:26:28;;;;;;;;;13.25;9.00;;;;;22.38;34.59;103334.91;5061503;27;51077;-56
2022/01/18 08:28:53;;;;;;;;;8.50;8.50;;;;;22.38;34.74;103334.91;5074910;28;51056;-56
2022/01/18 08:31:18;;;;;;;;;10.25;9.25;;;;;22.35;34.64;103342.72;5060943;28;51072;-56
2022/01/18 08:33:44;;;;;;;;;15.50;13.00;;;;;22.33;34.26;103337.34;5056787;28;52011;-56
2022/01/18 08:36:09;;;;;;;;;11.00;9.00;;;;;22.34;34.20;103335.47;5057009;28;51161;-55
2022/01/18 08:38:37;;;;;;;;;12.00;9.25;;;;;22.36;34.23;103327.84;5057155;28;51042;-55
2022/01/18 08:41:04;;;;;;;;;10.25;10.00;;;;;22.37;34.46;103333.19;5063473;28;51014;-54
2022/01/18 08:43:33;;;;;;;;;10.50;9.75;;;;;22.39;34.83;103328.34;5063417;28;51109;-56
2022/01/18 08:46:03;;;;;;;;;9.00;8.00;;;;;22.45;34.62;103329.56;5060858;27;51368;-54
2022/01/18 08:48:29;;;;;;;;;8.50;7.50;;;;;22.48;34.13;103337.50;5066771;28;51200;-55
2022/01/18 08:50:56;;;;;;;;;9.50;8.25;;;;;22.53;34.09;103345.28;5068413;28;52565;-57
2022/01/18 08:53:21;;;;;;;;;10.50;8.00;;;;;22.58;33.96;103337.31;5056661;28;51229;-58
2022/01/18 08:55:46;;;;;;;;;8.75;8.75;;;;;22.61;34.42;103343.31;5061523;28;51119;-55
2022/01/18 08:58:12;;;;;;;;;9.50;8.00;;;;;22.66;33.83;103340.91;5068806;28;51069;-54
2022/01/18 09:00:38;;;;;;;;;9.00;7.25;;;;;22.70;34.32;103338.63;5076349;28;51504;-55
2022/01/18 09:03:03;;;;;;;;;12.50;7.25;;;;;22.75;33.95;103336.22;5060637;27;51118;-55
2022/01/18 09:05:29;;;;;;;;;7.00;7.00;;;;;22.80;34.02;103335.69;5065866;28;51122;-54
2022/01/18 09:07:56;;;;;;;;;8.50;8.50;;;;;22.84;33.85;103326.03;5056620;28;51517;-55
2022/01/18 09:10:25;;;;;;;;;7.25;6.25;;;;;22.87;33.39;103323.78;5066304;28;52644;-56
2022/01/18 09:12:51;;;;;;;;;9.00;6.75;;;;;22.92;33.50;103328.75;5063192;27;51440;-52
2022/01/18 09:15:16;;;;;;;;;8.75;8.25;;;;;22.94;33.72;103333.06;5055948;28;51147;-58
2022/01/18 09:17:42;;;;;;;;;15.50;13.50;;;;;22.90;33.04;103333.59;5057398;28;51086;-55
2022/01/18 09:20:10;;;;;;;;;12.75;12.25;;;;;22.80;32.82;103331.00;5059517;28;51882;-55
2022/01/18 09:22:41;;;;;;;;;10.00;8.50;;;;;22.72;32.94;103328.28;5061541;28;51332;-54
2022/01/18 09:25:12;;;;;;;;;9.50;7.00;;;;;22.64;32.60;103331.06;5068706;28;51311;-54
2022/01/18 09:27:38;;;;;;;;;8.75;8.00;;;;;22.59;33.24;103327.97;5068953;27;51092;-54
2022/01/18 09:30:05;;;;;;;;;9.00;9.00;;;;;22.52;32.74;103326.97;5059981;27;51038;-56
2022/01/18 09:32:30;;;;;;;;;8.25;8.00;;;;;22.46;33.30;103329.38;5057915;28;51340;-54
2022/01/18 09:34:56;;;;;;;;;9.00;8.25;;;;;22.42;33.47;103325.25;5067479;28;51450;-57
2022/01/18 09:37:21;;;;;;;;;11.00;8.50;;;;;22.38;33.57;103323.00;5059841;27;51011;-55
2022/01/18 09:39:47;;;;;;;;;9.00;7.50;;;;;22.34;33.52;103319.75;5064720;28;51112;-55
2022/01/18 09:42:13;;;;;;;;;12.75;9.25;;;;;22.30;33.15;103332.19;5065828;28;51207;-53
2022/01/18 09:44:39;;;;;;;;;9.75;6.75;;;;;22.26;33.28;103327.19;5062005;27;51063;-53
2022/01/18 09:47:05;;;;;;;;;5.75;5.50;;;;;22.22;33.33;103320.28;5071811;28;51425;-54
2022/01/18 09:49:33;;;;;;;;;7.25;7.25;;;;;22.17;33.35;103329.94;5068454;28;52106;-53
2022/01/18 09:51:59;;;;;;;;;10.50;9.00;;;;;22.13;33.89;103328.59;5062271;28;51384;-53
2022/01/18 09:54:24;;;;;;;;;8.50;8.50;;;;;22.09;33.26;103327.22;5075546;28;50998;-55
2022/01/18 09:56:50;;;;;;;;;7.00;7.00;;;;;22.08;33.83;103330.13;5061593;28;50932;-56
2022/01/18 09:59:15;;;;;;;;;9.25;7.25;;;;;22.05;33.33;103330.44;5055810;28;51217;-54
2022/01/18 10:01:41;;;;;;;;;7.75;7.00;;;;;22.02;33.66;103326.16;5059011;28;51018;-55
2022/01/18 10:04:14;;;;;;;;;12.25;9.00;;;;;21.99;33.74;103333.88;5061152;28;51048;-53
2022/01/18 10:06:41;;;;;;;;;7.75;6.25;;;;;21.98;33.99;103321.13;5063967;28;51099;-54
2022/01/18 10:09:14;;;;;;;;;9.00;8.00;;;;;21.96;33.56;103331.47;5063165;28;51962;-55
2022/01/18 10:12:00;;;;;;;;;9.00;7.25;;;;;21.93;33.64;103329.06;5074063;28;51309;-55
2022/01/18 10:14:26;;;;;;;;;6.50;6.50;;;;;21.91;33.76;103323.72;5056252;27;51251;-55
2022/01/18 10:16:51;;;;;;;;;8.00;7.00;;;;;21.89;33.41;103315.63;5072894;27;51103;-55
2022/01/18 10:19:33;;;;;;;;;9.00;7.50;;;;;21.90;33.42;103316.50;5063791;28;51919;-56
2022/01/18 10:22:18;;;;;;;;;6.75;6.75;;;;;21.89;33.54;103315.63;5064163;28;50990;-55
2022/01/18 10:24:44;;;;;;;;;10.00;6.25;;;;;21.87;33.55;103312.16;5069165;27;51176;-53
2022/01/18 10:27:12;;;;;;;;;6.75;5.25;;;;;21.87;33.92;103309.41;5073661;27;51162;-56
2022/01/18 10:29:42;;;;;;;;;6.50;6.50;;;;;21.86;33.94;103315.09;5073457;28;52873;-56
2022/01/18 10:32:16;;;;;;;;;10.00;8.25;;;;;21.87;34.44;103308.53;5072811;28;51240;-55
2022/01/18 10:37:28;;;;;;;;;10.00;7.00;;;;;21.86;34.13;103301.28;5066672;27;51118;-53
2022/01/18 10:39:56;;;;;;;;;10.00;8.25;;;;;21.87;34.27;103292.84;5069588;28;51222;-54
2022/01/18 10:42:30;;;;;;;;;10.50;7.50;;;;;21.89;34.81;103289.94;5068589;28;51036;-58
2022/01/18 10:45:08;;;;;;;;;9.75;7.25;;;;;21.92;34.36;103291.47;5072347;28;51286;-57
2022/01/18 10:47:34;;;;;;;;;10.00;8.75;;;;;21.93;35.02;103279.41;5068459;28;51070;-56
2022/01/18 10:50:30;;;;;;;;;9.75;9.00;;;;;21.95;34.89;103275.44;5071485;28;52064;-56
2022/01/18 10:53:19;;;;;;;;;13.00;9.75;;;;;21.99;35.07;103270.41;5065024;28;51089;-56
2022/01/18 10:55:50;;;;;;;;;14.00;10.75;;;;;22.02;35.32;103261.81;5057979;28;51450;-56
2022/01/18 10:58:18;;;;;;;;;15.00;11.50;;;;;22.04;35.31;103266.09;5059558;28;51233;-57
2022/01/18 11:00:45;;;;;;;;;12.00;11.50;;;;;22.06;34.86;103255.78;5072449;27;50953;-55
2022/01/18 11:03:10;;;;;;;;;11.00;11.00;;;;;22.09;35.52;103247.16;5059953;28;52668;-53
2022/01/18 11:05:38;;;;;;;;;12.50;9.75;;;;;22.13;35.05;103255.94;5074708;28;50997;-56
2022/01/18 11:08:06;;;;;;;;;13.00;8.75;;;;;22.15;35.53;103249.22;5070220;28;51131;-56
2022/01/18 11:10:35;;;;;;;;;10.75;9.50;;;;;22.17;35.46;103235.22;5059808;28;51104;-57
2022/01/18 11:13:24;;;;;;;;;14.75;10.00;;;;;22.19;35.45;103238.66;5057795;28;51279;-57
2022/01/18 11:15:53;;;;;;;;;10.25;10.25;;;;;22.22;35.89;103219.00;5054336;28;51332;-56
2022/01/18 11:18:29;;;;;;;;;14.75;11.75;;;;;22.25;35.37;103226.06;5066029;28;51294;-57
2022/01/18 11:20:55;;;;;;;;;20.00;14.75;;;;;22.28;36.17;103229.31;5068715;28;51091;-57
2022/01/18 11:23:22;;;;;;;;;23.25;18.75;;;;;22.31;35.54;103219.84;5072768;27;51364;-59
2022/01/18 11:25:49;;;;;;;;;21.50;15.75;;;;;22.32;36.41;103219.66;5073660;27;51023;-56
2022/01/18 11:28:16;;;;;;;;;22.25;17.75;;;;;22.33;36.53;103213.09;5062588;28;51307;-57
2022/01/18 11:30:44;;;;;;;;;19.00;16.75;;;;;22.34;35.99;103212.06;5067198;27;52785;-58
2022/01/18 11:33:15;;;;;;;;;20.25;18.25;;;;;22.34;36.54;103203.78;5058961;28;51444;-59
2022/01/18 11:35:54;;;;;;;;;18.25;17.00;;;;;22.35;36.07;103186.16;5069534;28;51195;-63
2022/01/18 11:38:48;;;;;;;;;20.25;16.00;;;;;22.34;35.90;103181.69;5063282;27;51131;-59
2022/01/18 11:41:39;;;;;;;;;19.50;16.25;;;;;22.35;36.02;103182.53;5057575;28;51086;-58
2022/01/18 11:44:14;;;;;;;;;18.50;16.00;;;;;22.35;36.06;103185.31;5056361;27;51350;-57
2022/01/18 11:46:51;;;;;;;;;21.00;15.75;;;;;22.34;36.12;103176.16;5074954;28;51123;-58
2022/01/18 11:49:21;;;;;;;;;18.25;13.00;;;;;22.33;36.68;103171.69;5058994;28;51444;-60
2022/01/18 11:52:00;;;;;;;;;13.25;11.50;;;;;22.33;36.75;103168.91;5059563;27;51461;-57
2022/01/18 11:54:36;;;;;;;;;16.50;12.50;;;;;22.32;36.36;103164.44;5068973;28;51017;-57
2022/01/18 11:57:04;;;;;;;;;12.00;10.00;;;;;22.32;35.98;103158.06;5071171;28;51011;-57
2022/01/18 11:59:39;;;;;;;;;8.50;8.25;;;;;22.32;36.13;103149.78;5072543;28;51163;-57
2022/01/18 12:02:05;;;;;;;;;13.25;12.50;;;;;22.32;36.13;103141.50;5076449;28;52771;-57
2022/01/18 12:07:05;;;;;;;;;10.25;8.75;;;;;22.33;35.90;103146.81;5065380;28;51194;-57
2022/01/18 12:09:47;;;;;;;;;11.00;8.75;;;;;22.31;35.53;103129.59;5076688;27;51346;-56
2022/01/18 12:12:42;;;;;;;;;8.00;6.75;;;;;22.32;35.52;103134.06;5078464;27;52079;-57
2022/01/18 12:15:17;;;;;;;;;9.00;9.00;;;;;22.31;35.90;103129.59;5055640;28;51401;-57
2022/01/18 12:17:47;;;;;;;;;9.25;9.00;;;;;22.30;35.47;103122.34;5072815;28;51436;-59
2022/01/18 12:20:34;;;;;;;;;10.00;9.00;;;;;22.29;35.85;103123.34;5080481;27;51360;-58
2022/01/18 12:23:03;;;;;;;;;7.00;7.00;;;;;22.28;35.33;103118.88;5057833;27;52052;-57
2022/01/18 12:25:31;;;;;;;;;7.25;6.25;;;;;22.27;35.52;103114.41;5063038;28;51275;-57
2022/01/18 12:28:01;;;;;;;;;7.25;5.50;;;;;22.25;36.04;103113.72;5069626;27;51222;-58
2022/01/18 12:30:53;;;;;;;;;9.00;6.75;;;;;22.25;35.79;103102.69;5061111;28;51057;-57
2022/01/18 12:33:20;;;;;;;;;10.25;8.00;;;;;22.25;36.00;103099.91;5068246;27;51735;-57
2022/01/18 12:35:46;;;;;;;;;8.75;8.50;;;;;22.24;35.74;103098.22;5062914;28;51304;-58
2022/01/18 12:38:25;;;;;;;;;6.75;6.75;;;;;22.23;35.55;103087.34;5059563;28;51006;-57